Time;durP1;ratioP1;P1;durP2;ratioP2;P2;SDS_P1;SDS_P2;PMS_P1;PMS_P2;Temp;Humidity;BMP_temperature;BMP_pressure;BME280_temperature;BME280_humidity;BME280_pressure;Samples;Min_cycle;Max_cycle;Signal;HPM_P1;HPM_P2
2021/05/26 00:01:18;;;;;;;12.80;8.90;;;16.30;85.30;;;;;;5090403;28;20046;-87
2021/05/26 00:03:43;;;;;;;12.43;8.80;;;16.20;84.80;;;;;;5092818;28;20095;-88
2021/05/26 00:06:09;;;;;;;10.98;8.75;;;16.20;84.90;;;;;;5085218;28;20040;-87
2021/05/26 00:08:37;;;;;;;11.80;8.73;;;16.20;85.00;;;;;;5091159;28;20035;-87
2021/05/26 00:11:07;;;;;;;10.05;7.85;;;16.20;85.10;;;;;;5090671;28;20032;-85
2021/05/26 00:13:33;;;;;;;13.02;9.20;;;16.20;85.20;;;;;;5090261;28;20020;-85
2021/05/26 00:15:59;;;;;;;10.10;8.00;;;16.20;85.20;;;;;;5089266;28;20115;-85
2021/05/26 00:18:25;;;;;;;11.52;8.77;;;16.20;85.30;;;;;;5083500;28;20132;-85
2021/05/26 00:20:52;;;;;;;11.40;8.70;;;16.20;85.30;;;;;;5085724;28;20099;-87
2021/05/26 00:23:18;;;;;;;12.85;8.98;;;16.20;85.40;;;;;;5072392;28;20021;-86
2021/05/26 00:25:43;;;;;;;15.40;8.52;;;16.20;85.50;;;;;;5082543;28;20024;-87
2021/05/26 00:28:09;;;;;;;10.95;8.35;;;16.20;85.40;;;;;;5089660;28;20492;-84
2021/05/26 00:30:43;;;;;;;12.05;9.15;;;16.20;86.00;;;;;;5082828;28;20371;-85
2021/05/26 00:33:09;;;;;;;12.23;8.90;;;16.20;85.50;;;;;;5087111;28;20360;-84
2021/05/26 00:35:35;;;;;;;11.23;8.90;;;16.20;85.50;;;;;;5089333;28;20035;-84
2021/05/26 00:38:01;;;;;;;13.02;9.93;;;16.20;85.60;;;;;;5088932;28;20035;-84
2021/05/26 00:40:27;;;;;;;12.57;8.98;;;16.10;85.70;;;;;;5091143;28;20039;-89
2021/05/26 00:42:53;;;;;;;12.85;9.05;;;16.10;85.80;;;;;;5091025;28;20478;-85
2021/05/26 00:45:19;;;;;;;10.18;8.70;;;16.10;86.00;;;;;;5085714;28;20020;-85
2021/05/26 00:47:47;;;;;;;12.07;8.60;;;16.00;86.10;;;;;;5094209;28;20091;-85
2021/05/26 00:50:19;;;;;;;14.90;10.32;;;16.00;86.30;;;;;;5086412;28;20028;-85
2021/05/26 00:52:45;;;;;;;11.50;8.77;;;16.00;86.60;;;;;;5082797;28;20028;-84
2021/05/26 00:55:13;;;;;;;11.43;7.93;;;16.00;86.60;;;;;;5084746;28;20033;-84
2021/05/26 00:57:39;;;;;;;11.07;8.60;;;15.90;86.90;;;;;;5077029;28;20056;-84
2021/05/26 01:00:06;;;;;;;9.88;6.60;;;15.90;87.30;;;;;;5092120;28;20420;-84
2021/05/26 01:02:32;;;;;;;7.13;6.18;;;15.90;87.40;;;;;;5106049;28;20467;-84
2021/05/26 01:04:58;;;;;;;7.50;6.18;;;15.90;87.60;;;;;;5080757;28;20021;-84
2021/05/26 01:07:24;;;;;;;7.75;5.38;;;16.00;87.70;;;;;;5090074;28;20035;-84
2021/05/26 01:09:49;;;;;;;6.13;5.22;;;16.00;87.80;;;;;;5094626;28;20020;-84
2021/05/26 01:12:15;;;;;;;6.78;5.38;;;16.00;87.80;;;;;;5091416;28;20028;-85
2021/05/26 01:14:41;;;;;;;8.77;5.90;;;16.10;87.70;;;;;;5090306;28;20024;-85
2021/05/26 01:17:06;;;;;;;11.02;6.38;;;16.10;87.60;;;;;;5088592;28;20390;-85
2021/05/26 01:19:32;;;;;;;7.35;5.57;;;16.20;87.50;;;;;;5088464;28;20030;-85
2021/05/26 01:21:58;;;;;;;7.47;6.10;;;16.10;87.20;;;;;;5086932;28;20052;-85
2021/05/26 01:24:24;;;;;;;7.28;5.45;;;16.10;87.10;;;;;;5089185;28;20114;-85
2021/05/26 01:26:49;;;;;;;11.23;7.75;;;16.10;87.10;;;;;;5087997;28;20323;-85
2021/05/26 01:29:16;;;;;;;11.23;7.88;;;16.10;87.10;;;;;;5082082;28;20036;-85
2021/05/26 01:31:42;;;;;;;13.90;9.30;;;15.90;87.30;;;;;;5095061;28;20520;-85
2021/05/26 01:34:08;;;;;;;11.32;9.10;;;15.90;87.80;;;;;;5080685;28;20086;-85
2021/05/26 01:36:35;;;;;;;11.82;8.52;;;15.70;88.10;;;;;;5082674;28;20020;-85
2021/05/26 01:39:05;;;;;;;11.60;8.70;;;15.60;88.60;;;;;;5079868;28;20500;-85
2021/05/26 01:41:31;;;;;;;13.27;9.60;;;15.60;89.30;;;;;;5090948;28;20031;-85
2021/05/26 01:43:57;;;;;;;12.80;9.40;;;15.50;89.70;;;;;;5079137;28;20367;-85
2021/05/26 01:46:23;;;;;;;13.60;9.88;;;15.50;90.10;;;;;;5088492;28;20086;-85
2021/05/26 01:48:51;;;;;;;14.95;10.55;;;15.50;90.20;;;;;;5087628;28;20166;-86
2021/05/26 01:51:17;;;;;;;18.27;11.27;;;15.40;90.10;;;;;;5082191;28;20024;-86
2021/05/26 01:53:44;;;;;;;14.75;11.52;;;15.40;90.30;;;;;;5091220;28;20863;-85
2021/05/26 01:56:26;;;;;;;15.20;12.13;;;15.30;90.60;;;;;;5084213;28;20106;-84
2021/05/26 01:58:55;;;;;;;16.33;12.07;;;15.30;90.70;;;;;;5086956;28;20029;-84
2021/05/26 02:01:23;;;;;;;19.27;12.35;;;15.40;90.80;;;;;;5084768;28;20033;-85
2021/05/26 02:03:49;;;;;;;18.42;11.23;;;15.40;90.90;;;;;;5090001;28;20012;-85
2021/05/26 02:06:16;;;;;;;16.83;11.60;;;15.40;90.90;;;;;;5087395;28;20469;-84
2021/05/26 02:08:44;;;;;;;24.80;13.13;;;15.50;90.80;;;;;;5087327;28;20051;-84
2021/05/26 02:14:03;;;;;;;19.33;12.15;;;15.50;90.90;;;;;;5088471;28;20077;-84
2021/05/26 02:16:29;;;;;;;17.17;11.25;;;15.40;90.70;;;;;;5079531;28;20062;-85
2021/05/26 02:18:54;;;;;;;16.65;10.18;;;15.40;90.90;;;;;;5080458;28;20052;-85
2021/05/26 02:21:20;;;;;;;21.20;11.07;;;15.50;91.00;;;;;;5083450;28;20024;-84
2021/05/26 02:23:46;;;;;;;18.08;11.30;;;15.50;90.90;;;;;;5080669;28;20027;-85
2021/05/26 02:26:12;;;;;;;15.20;10.20;;;15.60;91.00;;;;;;5090762;28;20106;-85
2021/05/26 02:28:39;;;;;;;22.02;12.48;;;15.60;91.00;;;;;;5087981;28;20040;-85
2021/05/26 02:31:05;;;;;;;18.25;11.70;;;15.70;90.90;;;;;;5099777;28;20035;-85
2021/05/26 02:33:31;;;;;;;17.90;12.25;;;15.70;90.80;;;;;;5089885;28;20368;-85
2021/05/26 02:35:57;;;;;;;21.27;11.45;;;15.80;91.00;;;;;;5083262;28;20039;-85
2021/05/26 02:38:22;;;;;;;20.25;11.13;;;15.80;91.00;;;;;;5079583;28;20032;-85
2021/05/26 02:40:48;;;;;;;26.15;11.60;;;15.90;91.00;;;;;;5075911;28;20020;-85
2021/05/26 02:43:14;;;;;;;24.88;11.70;;;16.00;91.10;;;;;;5076406;28;20024;-84
2021/05/26 02:45:39;;;;;;;30.92;12.52;;;16.10;91.00;;;;;;5087654;28;20028;-86
2021/05/26 02:48:06;;;;;;;23.13;11.93;;;16.10;91.00;;;;;;5087415;28;20038;-85
2021/05/26 02:50:32;;;;;;;19.80;10.68;;;16.30;91.20;;;;;;5072456;28;20028;-85
2021/05/26 02:52:57;;;;;;;20.05;10.40;;;16.60;91.50;;;;;;5086677;28;20466;-85
2021/05/26 02:55:24;;;;;;;25.90;10.63;;;16.80;91.20;;;;;;5086457;28;20028;-85
2021/05/26 02:57:50;;;;;;;17.05;9.80;;;17.00;90.90;;;;;;5079226;28;20020;-85
2021/05/26 03:00:18;;;;;;;21.75;9.45;;;17.30;90.50;;;;;;5093197;28;20024;-85
2021/05/26 03:02:45;;;;;;;18.58;8.55;;;17.70;90.00;;;;;;5092274;28;20028;-85
2021/05/26 03:05:12;;;;;;;18.90;8.57;;;18.00;88.50;;;;;;5090469;28;20073;-85
2021/05/26 03:07:39;;;;;;;21.63;8.65;;;18.20;87.00;;;;;;5105062;28;20386;-86
2021/05/26 03:10:07;;;;;;;19.95;8.30;;;18.50;85.50;;;;;;5089234;28;20020;-86
2021/05/26 03:12:34;;;;;;;20.67;8.13;;;18.70;84.10;;;;;;5087484;28;20020;-86
2021/05/26 03:15:00;;;;;;;22.42;8.93;;;18.90;83.40;;;;;;5088232;28;20028;-87
2021/05/26 03:17:28;;;;;;;16.45;7.80;;;19.10;82.20;;;;;;5084017;28;20098;-86
2021/05/26 03:19:54;;;;;;;35.30;10.02;;;19.40;80.90;;;;;;5103362;28;20466;-87
2021/05/26 03:22:22;;;;;;;35.92;9.93;;;19.60;79.90;;;;;;5085342;28;20024;-87
2021/05/26 03:24:48;;;;;;;18.73;9.20;;;19.80;79.00;;;;;;5084274;28;20026;-86
2021/05/26 03:27:14;;;;;;;18.88;9.40;;;20.10;78.00;;;;;;5080988;28;20094;-85
2021/05/26 03:29:40;;;;;;;16.70;10.73;;;20.20;76.80;;;;;;5081149;28;20572;-85
2021/05/26 03:32:06;;;;;;;17.88;11.55;;;20.40;75.60;;;;;;5087656;28;20111;-85
2021/05/26 03:34:31;;;;;;;20.02;11.13;;;20.60;74.90;;;;;;5077815;28;20059;-85
2021/05/26 03:36:57;;;;;;;18.88;10.55;;;20.70;74.30;;;;;;5081570;28;20039;-85
2021/05/26 03:39:23;;;;;;;19.30;10.98;;;20.80;73.80;;;;;;5080942;28;20029;-85
2021/05/26 03:41:49;;;;;;;12.55;9.63;;;20.90;73.30;;;;;;5078404;28;20055;-74
2021/05/26 03:44:14;;;;;;;17.67;10.23;;;21.10;72.60;;;;;;5081082;28;20470;-74
2021/05/26 03:46:40;;;;;;;15.27;10.13;;;21.40;72.60;;;;;;5090076;28;20073;-77
2021/05/26 03:49:06;;;;;;;15.95;9.52;;;21.60;71.50;;;;;;5084984;28;20110;-74
2021/05/26 03:51:32;;;;;;;14.38;8.60;;;21.90;70.40;;;;;;5078765;28;20089;-74
2021/05/26 03:53:59;;;;;;;14.15;9.15;;;22.00;69.80;;;;;;5088295;28;20143;-75
2021/05/26 03:56:25;;;;;;;26.30;15.95;;;22.20;69.00;;;;;;5075226;28;20387;-78
2021/05/26 03:58:51;;;;;;;52.17;31.83;;;22.40;68.60;;;;;;5085058;28;20118;-74
2021/05/26 04:01:16;;;;;;;43.03;27.10;;;22.60;67.70;;;;;;5091467;28;20063;-75
2021/05/26 04:03:42;;;;;;;51.47;30.55;;;22.70;67.00;;;;;;5088129;28;20474;-75
2021/05/26 04:06:09;;;;;;;21.42;13.55;;;23.00;66.90;;;;;;5090024;28;20363;-74
2021/05/26 04:08:36;;;;;;;26.27;13.02;;;23.20;65.80;;;;;;5073303;28;20437;-75
2021/05/26 04:11:02;;;;;;;41.05;26.63;;;23.40;65.10;;;;;;5086482;28;20073;-76
2021/05/26 04:13:28;;;;;;;25.25;14.35;;;23.60;64.50;;;;;;5086910;28;20028;-74
2021/05/26 04:15:54;;;;;;;19.30;11.82;;;23.80;63.70;;;;;;5087872;28;20034;-75
2021/05/26 04:18:19;;;;;;;34.97;19.05;;;23.90;63.10;;;;;;5087979;28;20059;-75
2021/05/26 04:20:45;;;;;;;36.88;20.20;;;24.10;63.00;;;;;;5082063;28;20016;-76
2021/05/26 04:23:11;;;;;;;19.17;9.82;;;24.30;62.40;;;;;;5087022;28;20036;-75
2021/05/26 04:25:36;;;;;;;13.48;6.30;;;24.60;61.70;;;;;;5080134;28;20055;-75
2021/05/26 04:28:02;;;;;;;15.65;8.57;;;24.80;61.30;;;;;;5082623;28;20047;-75
2021/05/26 04:30:28;;;;;;;18.73;8.85;;;25.00;60.60;;;;;;5079663;28;20032;-74
2021/05/26 04:32:53;;;;;;;25.00;14.13;;;25.00;60.30;;;;;;5078486;28;20054;-75
2021/05/26 04:35:19;;;;;;;54.97;28.27;;;25.20;60.20;;;;;;5079630;28;20029;-75
2021/05/26 04:37:46;;;;;;;50.25;25.33;;;25.50;59.80;;;;;;5080143;28;20036;-75
2021/05/26 04:40:12;;;;;;;25.45;12.57;;;25.80;59.90;;;;;;5090559;28;20035;-74
2021/05/26 04:42:38;;;;;;;18.05;9.73;;;26.10;59.50;;;;;;5091737;28;20024;-75
2021/05/26 04:45:04;;;;;;;21.30;10.77;;;26.30;59.00;;;;;;5092661;28;20086;-75
2021/05/26 04:47:30;;;;;;;39.35;18.15;;;26.50;58.30;;;;;;5093747;28;20028;-75
2021/05/26 04:49:56;;;;;;;17.65;8.93;;;26.60;57.80;;;;;;5089776;28;20027;-73
2021/05/26 04:52:21;;;;;;;27.15;13.15;;;26.80;57.20;;;;;;5091255;28;20056;-74
2021/05/26 04:54:47;;;;;;;19.48;11.77;;;27.10;57.40;;;;;;5084886;28;20074;-77
2021/05/26 04:57:13;;;;;;;32.40;12.68;;;27.20;56.20;;;;;;5080732;28;20478;-75
2021/05/26 04:59:38;;;;;;;24.27;13.27;;;27.40;55.90;;;;;;5095188;28;20499;-90
2021/05/26 05:02:05;;;;;;;30.95;14.13;;;27.50;55.70;;;;;;5094362;28;20024;-92
2021/05/26 05:04:31;;;;;;;21.50;13.10;;;27.80;55.70;;;;;;5093340;28;20062;-93
2021/05/26 05:06:56;;;;;;;21.63;12.45;;;28.10;55.30;;;;;;5093078;28;20431;-91
2021/05/26 05:09:22;;;;;;;15.82;9.80;;;28.30;54.90;;;;;;5097842;28;20425;-92
2021/05/26 05:11:48;;;;;;;14.90;7.53;;;28.50;54.40;;;;;;5110687;28;20026;-95
2021/05/26 05:14:14;;;;;;;10.50;5.93;;;28.90;53.80;;;;;;5093979;28;20410;-95
2021/05/26 05:16:40;;;;;;;8.40;6.10;;;29.10;53.60;;;;;;5093859;28;20028;-93
2021/05/26 05:19:05;;;;;;;8.63;5.82;;;29.40;53.00;;;;;;5090762;28;20167;-90
2021/05/26 05:21:31;;;;;;;13.20;6.88;;;29.70;52.30;;;;;;5093293;28;20055;-83
2021/05/26 05:23:58;;;;;;;10.48;5.75;;;30.00;51.30;;;;;;5091381;28;20113;-68
2021/05/26 05:26:24;;;;;;;7.13;5.57;;;29.90;51.00;;;;;;5081759;28;20031;-69
2021/05/26 05:28:49;;;;;;;9.13;4.95;;;30.10;51.20;;;;;;5082932;28;20033;-69
2021/05/26 05:31:15;;;;;;;6.70;5.32;;;30.40;50.00;;;;;;5075969;28;20021;-70
2021/05/26 05:33:41;;;;;;;8.00;6.35;;;30.50;49.30;;;;;;5078897;28;20025;-70
2021/05/26 05:36:07;;;;;;;10.82;6.18;;;30.60;49.30;;;;;;5076560;28;20025;-69
2021/05/26 05:38:32;;;;;;;10.10;5.97;;;30.60;49.50;;;;;;5080857;28;20086;-69
2021/05/26 05:40:58;;;;;;;9.07;6.20;;;30.80;49.60;;;;;;5075726;28;20040;-70
2021/05/26 05:43:24;;;;;;;10.25;5.75;;;30.80;49.80;;;;;;5074589;28;20031;-70
2021/05/26 05:45:50;;;;;;;8.20;6.05;;;30.70;50.30;;;;;;5081677;28;20020;-69
2021/05/26 05:48:15;;;;;;;12.48;6.28;;;30.90;50.20;;;;;;5079213;28;20039;-70
2021/05/26 05:50:41;;;;;;;9.05;5.68;;;31.00;49.60;;;;;;5085525;28;20020;-69
2021/05/26 05:53:07;;;;;;;11.15;6.68;;;31.20;48.60;;;;;;5087887;28;20040;-69
2021/05/26 05:55:33;;;;;;;10.95;7.60;;;31.20;48.10;;;;;;5076576;28;20255;-70
2021/05/26 05:58:02;;;;;;;11.05;6.63;;;31.20;47.10;;;;;;5086956;28;20055;-70
2021/05/26 06:00:29;;;;;;;31.38;13.55;;;31.20;46.90;;;;;;5084251;28;20017;-70
2021/05/26 06:02:55;;;;;;;19.15;6.60;;;31.30;47.00;;;;;;5090416;28;20032;-69
2021/05/26 06:05:21;;;;;;;9.52;5.47;;;31.30;46.30;;;;;;5084937;28;20032;-70
2021/05/26 06:07:47;;;;;;;6.97;4.40;;;31.40;46.00;;;;;;5091345;28;20039;-70
2021/05/26 06:10:13;;;;;;;5.13;3.80;;;31.50;45.40;;;;;;5091016;28;20392;-70
2021/05/26 06:12:39;;;;;;;7.57;3.67;;;31.70;44.20;;;;;;5091478;28;20058;-70
2021/05/26 06:15:06;;;;;;;9.35;4.53;;;31.70;44.10;;;;;;5082115;28;20032;-70
2021/05/26 06:17:31;;;;;;;5.35;3.58;;;31.80;44.10;;;;;;5089931;28;20055;-67
2021/05/26 06:19:57;;;;;;;7.45;3.75;;;31.90;44.00;;;;;;5090702;28;20020;-70
2021/05/26 06:22:23;;;;;;;10.63;3.90;;;31.70;44.30;;;;;;5092775;28;20020;-70
2021/05/26 06:24:49;;;;;;;6.60;3.65;;;31.80;44.90;;;;;;5083248;28;20024;-70
2021/05/26 06:27:14;;;;;;;6.43;3.83;;;31.80;44.10;;;;;;5088258;28;20028;-71
2021/05/26 06:29:40;;;;;;;8.25;3.95;;;31.70;44.90;;;;;;5088730;28;20020;-73
2021/05/26 06:32:06;;;;;;;5.32;3.05;;;31.70;44.60;;;;;;5083022;28;20016;-70
2021/05/26 06:34:32;;;;;;;6.15;3.25;;;31.60;44.20;;;;;;5083162;28;20364;-72
2021/05/26 06:36:58;;;;;;;4.85;3.20;;;31.40;44.80;;;;;;5093462;28;20036;-69
2021/05/26 06:39:23;;;;;;;7.47;3.35;;;31.20;44.50;;;;;;5093588;28;20024;-70
2021/05/26 06:41:49;;;;;;;7.65;3.30;;;31.30;45.40;;;;;;5080461;28;20520;-74
2021/05/26 06:44:15;;;;;;;7.63;3.47;;;31.30;45.50;;;;;;5088982;28;20025;-72
2021/05/26 06:46:40;;;;;;;4.97;2.92;;;31.40;45.70;;;;;;5090201;28;20020;-70
2021/05/26 06:49:07;;;;;;;5.90;3.03;;;31.40;45.20;;;;;;5082877;28;20039;-71
2021/05/26 06:51:34;;;;;;;4.90;2.90;;;31.50;44.80;;;;;;5083422;28;20036;-71
2021/05/26 06:53:59;;;;;;;4.50;3.33;;;31.50;44.10;;;;;;5088422;28;20017;-70
2021/05/26 06:56:25;;;;;;;5.50;3.40;;;31.30;43.30;;;;;;5077389;28;20031;-71
2021/05/26 06:58:51;;;;;;;4.22;3.10;;;31.00;43.70;;;;;;5071563;28;20475;-71
2021/05/26 07:01:16;;;;;;;5.18;3.20;;;30.80;43.70;;;;;;5072377;28;20036;-70
2021/05/26 07:03:42;;;;;;;9.07;3.40;;;30.60;44.10;;;;;;5071748;28;20029;-70
2021/05/26 07:06:08;;;;;;;6.43;3.13;;;30.60;45.00;;;;;;5071509;28;20559;-71
2021/05/26 07:08:34;;;;;;;6.50;3.42;;;30.60;45.00;;;;;;5070312;28;20083;-71
2021/05/26 07:10:59;;;;;;;3.88;3.15;;;30.80;45.20;;;;;;5070785;28;20024;-71
2021/05/26 07:13:26;;;;;;;5.00;3.72;;;30.90;44.50;;;;;;5072805;28;20029;-70
2021/05/26 07:15:51;;;;;;;5.85;3.30;;;31.00;45.00;;;;;;5072540;28;20025;-70
2021/05/26 07:18:17;;;;;;;5.85;3.38;;;31.20;45.10;;;;;;5072748;28;20055;-70
2021/05/26 07:20:45;;;;;;;6.18;3.55;;;31.30;44.00;;;;;;5071311;28;20394;-70
2021/05/26 07:23:11;;;;;;;7.25;3.67;;;31.20;43.90;;;;;;5072856;28;20021;-70
2021/05/26 07:25:37;;;;;;;6.03;3.90;;;31.10;44.40;;;;;;5072572;28;20103;-70
2021/05/26 07:28:04;;;;;;;6.05;3.70;;;30.70;44.70;;;;;;5072541;28;20036;-70
2021/05/26 07:30:30;;;;;;;4.30;3.72;;;30.40;45.20;;;;;;5072239;28;20391;-70
2021/05/26 07:32:55;;;;;;;6.18;3.92;;;30.20;45.00;;;;;;5071204;28;20032;-70
2021/05/26 07:35:24;;;;;;;6.07;4.45;;;30.10;45.60;;;;;;5072697;28;20033;-70
2021/05/26 07:37:55;;;;;;;5.80;4.90;;;29.90;45.60;;;;;;5071015;28;20067;-70
2021/05/26 07:40:29;;;;;;;9.95;4.25;;;30.10;46.00;;;;;;5071453;28;20543;-70
2021/05/26 07:42:57;;;;;;;11.40;9.30;;;30.50;46.40;;;;;;5070969;28;20364;-70
2021/05/26 07:45:23;;;;;;;8.80;5.68;;;30.50;45.20;;;;;;5071479;28;20020;-70
2021/05/26 07:47:49;;;;;;;4.72;3.50;;;30.00;45.00;;;;;;5071898;28;20040;-69
2021/05/26 07:50:15;;;;;;;5.63;3.75;;;29.60;45.50;;;;;;5071361;28;20025;-70
2021/05/26 07:52:40;;;;;;;5.22;3.88;;;29.40;46.50;;;;;;5070669;28;20032;-70
2021/05/26 07:55:07;;;;;;;5.90;4.47;;;29.70;47.30;;;;;;5070845;28;20024;-70
2021/05/26 07:57:33;;;;;;;6.50;4.00;;;30.30;47.10;;;;;;5071041;28;20024;-71
2021/05/26 07:59:59;;;;;;;9.20;5.65;;;30.50;46.20;;;;;;5071473;28;20028;-70
2021/05/26 08:02:24;;;;;;;11.13;5.60;;;30.50;46.00;;;;;;5070656;28;20055;-73
2021/05/26 08:04:52;;;;;;;7.28;4.53;;;30.10;45.70;;;;;;5072855;28;20070;-70
2021/05/26 08:07:17;;;;;;;9.55;5.40;;;29.70;47.00;;;;;;5071403;28;20020;-69
2021/05/26 08:09:43;;;;;;;8.88;5.35;;;29.50;47.70;;;;;;5083930;28;20029;-69
2021/05/26 08:12:09;;;;;;;6.05;4.88;;;29.00;47.60;;;;;;5071235;28;20025;-69
2021/05/26 08:14:36;;;;;;;7.25;5.75;;;28.70;47.80;;;;;;5071793;28;20025;-69
2021/05/26 08:17:02;;;;;;;7.68;6.07;;;28.80;47.90;;;;;;5082674;28;20485;-70
2021/05/26 08:19:28;;;;;;;8.10;6.32;;;29.30;48.50;;;;;;5075636;28;20029;-69
2021/05/26 08:21:53;;;;;;;11.85;6.63;;;29.90;47.80;;;;;;5076497;28;20462;-69
2021/05/26 08:24:19;;;;;;;9.93;6.95;;;30.20;47.00;;;;;;5076003;28;20070;-72
2021/05/26 08:26:48;;;;;;;10.55;6.30;;;30.50;47.00;;;;;;5075901;28;20020;-72
2021/05/26 08:29:14;;;;;;;12.50;5.53;;;31.20;46.60;;;;;;5074848;28;20033;-70
2021/05/26 08:31:40;;;;;;;6.55;4.80;;;31.80;45.90;;;;;;5075933;28;20027;-68
2021/05/26 08:34:06;;;;;;;8.85;5.30;;;31.50;43.80;;;;;;5074738;28;20474;-70
2021/05/26 08:36:31;;;;;;;6.43;4.45;;;31.00;45.00;;;;;;5073883;28;20024;-70
2021/05/26 08:38:57;;;;;;;6.18;4.28;;;30.80;45.00;;;;;;5084986;28;20032;-70
2021/05/26 08:41:23;;;;;;;7.72;4.97;;;30.70;45.60;;;;;;5074175;28;20029;-70
2021/05/26 08:43:49;;;;;;;6.53;4.75;;;30.80;45.30;;;;;;5076026;28;20024;-70
2021/05/26 08:46:15;;;;;;;10.10;7.25;;;31.20;45.50;;;;;;5075808;28;20024;-68
2021/05/26 08:48:42;;;;;;;9.52;6.85;;;31.70;44.90;;;;;;5073774;28;20032;-70
2021/05/26 08:51:10;;;;;;;8.07;5.07;;;31.80;44.00;;;;;;5076166;28;20471;-70
2021/05/26 08:53:44;;;;;;;14.60;7.85;;;31.80;44.30;;;;;;5075816;28;20475;-71
2021/05/26 08:56:12;;;;;;;6.90;5.27;;;32.10;44.00;;;;;;5075700;28;20025;-70
2021/05/26 08:58:42;;;;;;;7.75;5.50;;;32.20;43.60;;;;;;5074808;28;20656;-70
2021/05/26 09:01:08;;;;;;;5.90;4.90;;;31.90;44.00;;;;;;5077469;28;20475;-70
2021/05/26 09:03:37;;;;;;;9.57;4.10;;;31.80;43.50;;;;;;5074210;28;20371;-70
2021/05/26 09:06:10;;;;;;;5.28;3.70;;;31.70;43.60;;;;;;5075260;28;20062;-68
2021/05/26 09:08:51;;;;;;;5.07;3.60;;;31.80;43.10;;;;;;5087331;28;20036;-69
2021/05/26 09:11:43;;;;;;;4.43;3.58;;;31.60;43.10;;;;;;5091253;28;20111;-72
2021/05/26 09:14:13;;;;;;;5.75;4.20;;;31.80;43.30;;;;;;5085006;28;20032;-70
2021/05/26 09:16:39;;;;;;;5.18;3.60;;;32.00;44.50;;;;;;5095076;28;20020;-69
2021/05/26 09:19:09;;;;;;;5.63;3.20;;;32.10;43.20;;;;;;5089036;28;20135;-70
2021/05/26 09:21:58;;;;;;;6.68;3.80;;;32.20;43.10;;;;;;5107665;28;20048;-69
2021/05/26 09:24:24;;;;;;;5.00;3.63;;;32.30;42.50;;;;;;5091070;28;20020;-68
2021/05/26 09:26:52;;;;;;;5.60;3.42;;;32.20;42.10;;;;;;5093291;28;20415;-69
2021/05/26 09:29:29;;;;;;;5.57;3.78;;;32.10;42.30;;;;;;5090807;28;20027;-69
2021/05/26 09:32:21;;;;;;;5.22;3.70;;;32.00;43.00;;;;;;5089986;28;20020;-68
2021/05/26 09:34:59;;;;;;;4.25;3.45;;;32.20;42.60;;;;;;5082488;28;20118;-69
2021/05/26 09:37:30;;;;;;;13.73;4.13;;;32.30;42.20;;;;;;5094080;28;20035;-70
2021/05/26 09:40:06;;;;;;;5.43;3.55;;;32.60;42.40;;;;;;5092413;28;20028;-69
2021/05/26 09:42:42;;;;;;;5.75;3.53;;;32.70;41.70;;;;;;5091230;28;20048;-69
2021/05/26 09:45:12;;;;;;;5.13;3.13;;;32.50;41.40;;;;;;5089438;28;20016;-69
2021/05/26 09:47:45;;;;;;;4.03;3.20;;;32.30;41.30;;;;;;5093727;28;20038;-69
2021/05/26 09:50:14;;;;;;;6.07;3.63;;;32.10;41.40;;;;;;5092705;28;20374;-69
2021/05/26 09:53:14;;;;;;;4.97;3.30;;;32.00;42.60;;;;;;5089164;28;20028;-70
2021/05/26 09:55:48;;;;;;;3.90;3.22;;;32.00;42.40;;;;;;5082236;28;20044;-69
2021/05/26 09:58:20;;;;;;;4.90;3.73;;;32.10;42.50;;;;;;5083383;28;20029;-69
2021/05/26 10:00:47;;;;;;;6.25;4.57;;;32.30;42.80;;;;;;5073676;28;20020;-69
2021/05/26 10:03:14;;;;;;;13.57;7.10;;;32.50;42.30;;;;;;5074908;28;20051;-69
2021/05/26 10:05:39;;;;;;;32.83;7.82;;;32.70;43.00;;;;;;5072582;28;20032;-69
2021/05/26 10:08:12;;;;;;;5.90;3.10;;;32.90;42.10;;;;;;5073988;28;20386;-69
2021/05/26 10:10:40;;;;;;;4.38;3.38;;;33.00;41.00;;;;;;5072177;28;20024;-69
2021/05/26 10:13:06;;;;;;;15.25;9.02;;;33.00;40.10;;;;;;5072650;28;20055;-69
2021/05/26 10:15:35;;;;;;;33.05;16.52;;;32.70;40.40;;;;;;5073200;28;20404;-69
2021/05/26 10:18:02;;;;;;;30.65;12.63;;;32.30;40.90;;;;;;5073730;28;20052;-69
2021/05/26 10:20:36;;;;;;;8.35;5.53;;;32.30;41.70;;;;;;5072794;28;20056;-69
2021/05/26 10:23:02;;;;;;;6.10;4.18;;;32.10;40.90;;;;;;5074062;28;20028;-69
2021/05/26 10:25:28;;;;;;;9.10;3.58;;;31.60;41.20;;;;;;5074138;28;20028;-70
2021/05/26 10:27:58;;;;;;;5.40;3.53;;;31.40;42.20;;;;;;5072499;28;20098;-69
2021/05/26 10:30:29;;;;;;;4.60;3.15;;;31.90;41.90;;;;;;5073919;28;20105;-70
2021/05/26 10:33:02;;;;;;;3.47;2.90;;;32.20;40.80;;;;;;5072629;28;20028;-70
2021/05/26 10:35:32;;;;;;;6.07;3.63;;;32.30;40.00;;;;;;5072536;28;20424;-69
2021/05/26 10:38:04;;;;;;;11.80;3.85;;;32.20;40.50;;;;;;5073474;28;20028;-71
2021/05/26 10:40:36;;;;;;;6.40;3.92;;;31.90;40.80;;;;;;5072730;28;20412;-69
2021/05/26 10:43:15;;;;;;;14.50;6.57;;;31.90;40.70;;;;;;5073635;28;20025;-69
2021/05/26 10:45:41;;;;;;;10.10;6.30;;;31.30;41.70;;;;;;5073349;28;20027;-69
2021/05/26 10:48:07;;;;;;;14.25;8.55;;;30.50;42.50;;;;;;5073374;28;20036;-69
2021/05/26 10:50:49;;;;;;;23.48;11.07;;;29.90;43.60;;;;;;5072928;28;20031;-69
2021/05/26 10:53:17;;;;;;;14.50;8.63;;;29.80;45.10;;;;;;5073517;28;20100;-69
2021/05/26 10:55:44;;;;;;;9.52;6.28;;;30.40;45.70;;;;;;5073359;28;20532;-70
2021/05/26 10:58:12;;;;;;;6.72;5.45;;;31.20;45.30;;;;;;5072102;28;20084;-70
2021/05/26 11:00:49;;;;;;;4.95;3.83;;;31.80;43.60;;;;;;5074773;28;20040;-69
2021/05/26 11:03:27;;;;;;;4.70;3.20;;;31.50;42.40;;;;;;5072440;28;20390;-69
2021/05/26 11:06:03;;;;;;;4.57;3.30;;;30.80;41.70;;;;;;5073097;28;20074;-68
2021/05/26 11:08:41;;;;;;;7.00;5.07;;;30.10;42.70;;;;;;5071465;28;20032;-69
2021/05/26 11:11:25;;;;;;;10.13;5.80;;;29.70;44.00;;;;;;5073155;28;20027;-69
2021/05/26 11:14:09;;;;;;;10.95;6.43;;;29.40;45.20;;;;;;5073200;28;20049;-69
2021/05/26 11:17:20;;;;;;;10.18;6.78;;;29.10;44.80;;;;;;5071570;28;20100;-69
2021/05/26 11:19:46;;;;;;;7.75;4.65;;;28.90;44.90;;;;;;5072758;28;20036;-69
2021/05/26 11:22:15;;;;;;;8.90;3.78;;;28.60;45.20;;;;;;5073288;28;20355;-69
2021/05/26 11:24:45;;;;;;;8.88;3.80;;;28.30;45.60;;;;;;5072826;28;20020;-69
2021/05/26 11:27:20;;;;;;;7.32;3.58;;;28.10;46.20;;;;;;5073600;28;20040;-68
2021/05/26 11:29:52;;;;;;;8.35;3.40;;;28.10;46.70;;;;;;5071023;28;20363;-69
2021/05/26 11:32:20;;;;;;;5.80;3.10;;;28.10;46.90;;;;;;5071279;28;20056;-68
2021/05/26 11:34:47;;;;;;;8.90;2.72;;;28.30;46.70;;;;;;5070905;28;20021;-68
2021/05/26 11:37:35;;;;;;;7.13;3.30;;;28.30;46.20;;;;;;5073021;28;20044;-69
2021/05/26 11:40:03;;;;;;;5.18;3.25;;;28.10;46.20;;;;;;5071054;28;20029;-68
2021/05/26 11:42:30;;;;;;;7.50;3.90;;;27.80;45.80;;;;;;5071364;28;20035;-68
2021/05/26 11:45:05;;;;;;;7.35;3.75;;;27.80;46.40;;;;;;5070913;28;20029;-69
2021/05/26 11:47:38;;;;;;;6.13;3.60;;;27.90;46.70;;;;;;5071874;28;20360;-69
2021/05/26 11:50:13;;;;;;;7.78;3.72;;;28.00;46.50;;;;;;5072223;28;20099;-70
2021/05/26 11:52:39;;;;;;;3.95;2.85;;;28.00;46.80;;;;;;5070927;28;20025;-68
2021/05/26 11:55:06;;;;;;;4.05;2.40;;;27.90;46.50;;;;;;5071645;28;20061;-69
2021/05/26 11:57:35;;;;;;;7.82;2.80;;;27.80;45.20;;;;;;5071328;28;20025;-69
2021/05/26 12:00:07;;;;;;;7.93;2.80;;;27.80;45.30;;;;;;5072328;28;20032;-69
2021/05/26 12:02:34;;;;;;;4.60;3.08;;;27.80;46.70;;;;;;5072005;28;20025;-69
2021/05/26 12:04:59;;;;;;;5.53;3.38;;;27.80;45.80;;;;;;5072349;28;20021;-69
2021/05/26 12:07:27;;;;;;;6.32;2.60;;;27.70;45.90;;;;;;5071610;28;20017;-69
2021/05/26 12:09:58;;;;;;;4.68;2.35;;;27.60;45.40;;;;;;5072598;28;20024;-69
2021/05/26 12:12:23;;;;;;;4.00;2.60;;;27.50;44.50;;;;;;5070941;28;20025;-69
2021/05/26 12:14:51;;;;;;;5.22;2.70;;;27.50;45.10;;;;;;5072073;28;20020;-69
2021/05/26 12:17:17;;;;;;;5.35;2.50;;;27.40;44.60;;;;;;5072490;28;20049;-69
2021/05/26 12:19:44;;;;;;;5.38;2.60;;;27.20;45.40;;;;;;5070766;28;20095;-69
2021/05/26 12:22:26;;;;;;;4.80;2.40;;;27.10;45.50;;;;;;5072105;28;20475;-69
2021/05/26 12:25:03;;;;;;;4.20;2.45;;;26.90;45.40;;;;;;5071509;28;20036;-69
2021/05/26 12:27:43;;;;;;;5.70;2.70;;;26.80;45.50;;;;;;5072596;28;20060;-69
2021/05/26 12:30:21;;;;;;;4.82;2.70;;;26.70;45.90;;;;;;5072610;28;20081;-69
2021/05/26 12:32:48;;;;;;;3.70;2.13;;;26.70;45.20;;;;;;5071693;28;20090;-69
2021/05/26 12:35:25;;;;;;;3.97;2.97;;;26.70;44.90;;;;;;5072194;28;20029;-69
2021/05/26 12:37:53;;;;;;;8.45;3.20;;;26.80;45.20;;;;;;5076147;28;20032;-70
2021/05/26 12:40:36;;;;;;;4.72;2.30;;;26.90;45.80;;;;;;5070817;28;20391;-69
2021/05/26 12:43:01;;;;;;;4.90;2.38;;;27.10;45.30;;;;;;5070752;28;20032;-70
2021/05/26 12:45:30;;;;;;;12.82;3.58;;;27.10;45.00;;;;;;5071817;28;20016;-69
2021/05/26 12:47:58;;;;;;;34.00;13.68;;;27.10;45.40;;;;;;5072083;28;20115;-69